This is the latest recevied weather packets stored in our database for station/object KC2BRB-1. If no packets are shown the sender has not sent any weather packets the latest 10 day(s).
| Time | Temp. | Humidity | Pressure | Rain* | Wind** | Luminosity | Snow |
|---|---|---|---|---|---|---|---|
| 1777990044 | 26.11° C | 71% | 1013.9 hPa | 0 mm | - | - | - |
| 1777989735 | 25.56° C | 72% | 1014 hPa | 0 mm | - | - | - |
| 1777989435 | 25.56° C | 72% | 1014 hPa | 0 mm | - | - | - |
| 1777989322 | 25° C | 74% | 1014 hPa | 0 mm | - | - | - |
| 1777989135 | 25° C | 74% | 1014 hPa | 0 mm | - | - | - |
| 1777988728 | 23.89° C | 76% | 1014.1 hPa | 0 mm | - | - | - |
| 1777988535 | 23.89° C | 76% | 1014.1 hPa | 0 mm | - | - | - |
| 1777988235 | 23.89° C | 76% | 1014.1 hPa | 0 mm | - | - | - |
| 1777988124 | 23.89° C | 76% | 1014.1 hPa | 0 mm | - | - | - |
| 1777987935 | 23.89° C | 76% | 1014.1 hPa | 0 mm | - | - | - |
| 1777987335 | 23.89° C | 76% | 1014.1 hPa | 0 mm | - | - | - |
| 1777987035 | 23.89° C | 76% | 1014.1 hPa | 0 mm | - | - | - |
| 1777986973 | 23.33° C | 79% | 1014.1 hPa | 0 mm | - | - | - |
| 1777986735 | 23.33° C | 79% | 1014.1 hPa | 0 mm | - | - | - |
| 1777986436 | 23.33° C | 79% | 1014.1 hPa | 0 mm | - | - | - |
| 1777986135 | 22.22° C | 83% | 1013.8 hPa | 0 mm | - | - | - |
| 1777985835 | 22.22° C | 83% | 1013.8 hPa | 0 mm | - | - | - |
| 1777985535 | 21.67° C | 84% | 1013.8 hPa | 0 mm | - | - | - |
| 1777985236 | 21.67° C | 84% | 1013.8 hPa | 0 mm | - | - | - |
| 1777984935 | 21.11° C | 85% | 1014.1 hPa | 0 mm | - | - | - |
| 1777984716 | 20.56° C | 86% | 1014.1 hPa | 0 mm | - | - | - |
| 1777984635 | 21.11° C | 85% | 1014.1 hPa | 0 mm | - | - | - |
| 1777984339 | 20.56° C | 86% | 1014.1 hPa | 0 mm | - | - | - |
| 1777984308 | 20.56° C | 86% | 1014.1 hPa | 0 mm | - | - | - |
| 1777984036 | 20.56° C | 86% | 1014.1 hPa | 0 mm | - | - | - |
* Rain latest hour (hover to see other rain measurements)
** Current wind speed in m/s (hover to see current wind gust speed)